Flight CEB371
Submitted By: Maurizio Fadda Date Submitted: 27/01/2019
Departure Airport: Macau International Airport (VMMC) Arrival Airport: Clark International Airport (RPLC)
Aircraft: A320-200 (RP-C4100) Flight Time: 01.36
Status: AcceptedRoute: GRUPA NOMAN MUMOT AVMUP TAREM MALIB
Additional Log Information

Show/Hide Log

Comments
Commenter Comment
Maurizio Fadda Regular takeoff runway 34,taxy C1-C2-C3,Sid GRUP2T.Regular landing runway ILS20 RPLC,Star MALIP3P,exit runway F5,taxy D.Fir/Uir:Guangzhou,Hong Kong,Manila.Weather:VMMC 271700Z 09011KT 9999 FEW035 17/12 Q1021 NOSIG.......................RPLC 271800Z 25002KT 9999 FEW020 BKN300 20/17 Q1016 NOSIG RMK A3000.
Flight Map